Time;durP1;ratioP1;P1;durP2;ratioP2;P2;SDS_P1;SDS_P2;PMS_P1;PMS_P2;Temp;Humidity;BMP_temperature;BMP_pressure;BME280_temperature;BME280_humidity;BME280_pressure;Samples;Min_cycle;Max_cycle;Signal;HPM_P1;HPM_P2
2022/01/18 00:00:28;;;;;;;3.08;2.47;;;;;;;19.26;47.75;101650.69;5000246;28;20036;-69
2022/01/18 00:02:54;;;;;;;2.70;1.80;;;;;;;19.26;47.55;101655.97;4995029;28;20050;-68
2022/01/18 00:05:19;;;;;;;3.25;2.22;;;;;;;19.25;47.34;101658.78;5001515;28;20563;-69
2022/01/18 00:07:46;;;;;;;3.60;2.00;;;;;;;19.22;47.18;101655.47;5000151;28;20144;-70
2022/01/18 00:10:13;;;;;;;3.20;2.30;;;;;;;19.21;47.33;101659.13;4992489;28;20037;-70
2022/01/18 00:17:53;;;;;;;4.72;1.88;;;;;;;19.15;47.09;101665.09;4998993;28;20172;-66
2022/01/18 00:20:33;;;;;;;4.15;2.10;;;;;;;19.12;47.07;101662.78;4994638;28;20404;-67
2022/01/18 00:22:58;;;;;;;2.90;1.95;;;;;;;19.12;47.23;101675.16;5000527;28;20181;-69
2022/01/18 00:25:24;;;;;;;2.35;1.95;;;;;;;19.10;47.45;101688.56;5000442;28;20128;-69
2022/01/18 00:27:49;;;;;;;3.95;2.60;;;;;;;19.10;47.39;101693.00;4996997;28;20056;-69
2022/01/18 00:36:01;;;;;;;3.30;1.75;;;;;;;19.03;47.45;101687.59;4962801;28;20049;-68
2022/01/18 00:38:47;;;;;;;2.92;2.08;;;;;;;19.04;47.40;101688.41;4964504;28;20121;-68
2022/01/18 00:41:13;;;;;;;3.28;2.13;;;;;;;19.01;47.25;101697.50;4972151;28;20034;-69
2022/01/18 00:43:40;;;;;;;2.45;1.92;;;;;;;19.01;47.06;101708.06;4964845;28;20046;-69
2022/01/18 00:46:06;;;;;;;3.42;2.50;;;;;;;19.01;46.93;101709.88;4959183;28;20063;-70
2022/01/18 00:48:34;;;;;;;3.45;2.13;;;;;;;19.00;46.80;101718.78;4959279;28;20189;-68
2022/01/18 00:51:00;;;;;;;3.35;2.13;;;;;;;18.99;46.80;101725.06;4966232;28;20130;-69
2022/01/18 00:53:30;;;;;;;2.72;1.95;;;;;;;18.99;46.57;101719.78;4960583;28;20129;-69
2022/01/18 00:56:15;;;;;;;2.60;1.90;;;;;;;18.98;46.66;101718.94;4973753;28;20039;-68
2022/01/18 00:58:42;;;;;;;2.90;2.10;;;;;;;18.96;46.48;101725.41;4962605;28;20042;-68
2022/01/18 01:01:10;;;;;;;3.10;2.42;;;;;;;18.97;46.22;101727.03;4965260;28;20035;-66
2022/01/18 01:03:37;;;;;;;3.17;2.65;;;;;;;18.97;46.03;101733.16;4963755;28;20176;-68
2022/01/18 01:06:04;;;;;;;3.42;2.17;;;;;;;18.98;46.06;101731.34;4964401;28;20045;-67
2022/01/18 01:08:30;;;;;;;2.70;2.30;;;;;;;18.97;45.89;101740.25;4976346;28;20100;-69
2022/01/18 01:10:56;;;;;;;3.28;2.30;;;;;;;18.98;46.11;101747.19;5006339;28;20030;-70
2022/01/18 01:13:22;;;;;;;3.10;2.50;;;;;;;18.97;46.24;101751.63;4991811;28;20030;-68
2022/01/18 01:16:09;;;;;;;3.03;2.22;;;;;;;18.97;46.04;101750.81;5003501;28;20037;-67
2022/01/18 01:36:01;;;;;;;4.95;2.63;;;;;;;18.87;45.52;101751.84;5003604;28;20100;-67
2022/01/18 01:43:21;;;;;;;3.55;2.38;;;;;;;18.84;45.69;101760.09;5000846;28;20073;-70
2022/01/18 01:45:48;;;;;;;3.72;2.70;;;;;;;18.83;45.63;101749.72;5000227;28;20069;-66
2022/01/18 01:48:13;;;;;;;2.35;2.15;;;;;;;18.82;45.71;101743.59;5000614;28;20144;-69
2022/01/18 01:50:53;;;;;;;2.17;1.85;;;;;;;18.83;45.76;101739.97;4992416;28;20549;-67
2022/01/18 01:53:21;;;;;;;2.35;2.15;;;;;;;18.82;45.74;101748.06;5003093;28;20441;-67
2022/01/18 01:55:48;;;;;;;3.25;2.20;;;;;;;18.82;45.79;101745.41;4998036;28;20050;-69
2022/01/18 01:58:14;;;;;;;2.47;2.28;;;;;;;18.82;45.90;101732.22;4995111;28;20034;-69
2022/01/18 02:00:46;;;;;;;2.70;2.17;;;;;;;18.81;45.72;101741.13;5003235;28;20508;-69
2022/01/18 02:03:13;;;;;;;3.42;2.20;;;;;;;18.80;45.60;101750.88;5003848;28;20490;-69
2022/01/18 02:05:39;;;;;;;3.03;2.30;;;;;;;18.79;45.56;101751.84;5005374;28;20034;-68
2022/01/18 02:08:07;;;;;;;3.03;2.08;;;;;;;18.79;45.53;101743.09;5001769;28;20052;-66
2022/01/18 02:10:36;;;;;;;3.03;2.08;;;;;;;18.78;45.58;101744.09;4999523;28;20932;-69
2022/01/18 02:13:03;;;;;;;5.13;2.88;;;;;;;18.77;45.49;101748.56;4995739;28;20032;-69
2022/01/18 02:15:29;;;;;;;2.72;2.30;;;;;;;18.76;45.28;101746.09;5000962;28;20183;-67
2022/01/18 02:23:27;;;;;;;2.80;2.10;;;;;;;18.73;45.56;101741.97;4993424;28;20500;-66
2022/01/18 02:25:54;;;;;;;3.08;2.40;;;;;;;18.74;45.45;101737.50;5000819;28;20036;-68
2022/01/18 02:28:22;;;;;;;3.60;2.25;;;;;;;18.73;45.28;101734.03;4997113;28;20092;-67
2022/01/18 02:30:48;;;;;;;3.05;2.20;;;;;;;18.74;45.33;101734.88;4997320;28;20046;-66
2022/01/18 02:33:14;;;;;;;2.65;2.25;;;;;;;18.73;45.38;101741.13;4995561;28;20034;-69
2022/01/18 02:35:43;;;;;;;2.28;2.08;;;;;;;18.72;45.31;101736.84;4999714;28;20026;-66
2022/01/18 02:38:08;;;;;;;2.70;2.50;;;;;;;18.71;45.64;101735.19;5003398;28;20467;-69
2022/01/18 02:40:34;;;;;;;2.22;1.92;;;;;;;18.70;45.37;101734.38;4998617;28;20081;-68
2022/01/18 02:43:46;;;;;;;2.45;2.10;;;;;;;18.69;45.37;101745.91;4997112;28;20088;-68
2022/01/18 02:45:47;;;;;;;2.97;2.15;;;;;;;18.68;45.55;101749.56;4992830;28;20078;-66
2022/01/18 02:48:14;;;;;;;3.25;2.65;;;;;;;18.66;45.23;101743.59;4990417;28;20030;-69
2022/01/18 02:50:40;;;;;;;2.95;2.17;;;;;;;18.65;45.33;101736.69;4992716;28;20150;-66
2022/01/18 02:53:06;;;;;;;2.53;2.17;;;;;;;18.64;45.36;101735.03;4995426;28;20033;-68
2022/01/18 02:55:31;;;;;;;3.53;2.45;;;;;;;18.63;45.40;101736.03;5003848;28;20023;-67
2022/01/18 02:58:03;;;;;;;3.90;2.28;;;;;;;18.62;45.58;101726.47;5004690;28;20496;-67
2022/01/18 03:00:44;;;;;;;3.30;1.77;;;;;;;18.59;45.53;101737.31;4999202;28;20030;-70
2022/01/18 03:03:13;;;;;;;2.13;1.88;;;;;;;18.59;45.57;101737.31;4999369;28;20107;-69
2022/01/18 03:05:41;;;;;;;3.00;2.13;;;;;;;18.58;45.57;101744.41;5002575;28;20117;-68
2022/01/18 03:08:08;;;;;;;2.10;1.83;;;;;;;18.57;45.61;101744.56;4995402;28;20034;-69
2022/01/18 03:10:34;;;;;;;2.13;1.52;;;;;;;18.56;45.71;101740.28;4998486;28;20117;-67
2022/01/18 03:13:00;;;;;;;2.28;2.08;;;;;;;18.56;45.69;101748.19;5003121;28;20404;-66
2022/01/18 03:15:25;;;;;;;4.13;2.13;;;;;;;18.54;45.71;101742.25;5002009;28;20037;-67
2022/01/18 03:17:51;;;;;;;2.97;2.38;;;;;;;18.54;45.60;101744.91;4996069;28;20041;-66
2022/01/18 03:20:19;;;;;;;3.03;1.92;;;;;;;18.52;45.44;101745.06;4995546;28;20030;-67
2022/01/18 03:22:45;;;;;;;2.20;1.83;;;;;;;18.52;45.44;101746.88;4998592;28;20382;-69
2022/01/18 03:30:23;;;;;;;2.40;2.20;;;;;;;18.49;45.13;101765.69;4997077;28;20309;-69
2022/01/18 03:32:49;;;;;;;1.92;1.40;;;;;;;18.50;45.33;101767.34;4993158;28;20482;-67
2022/01/18 03:35:14;;;;;;;2.88;2.10;;;;;;;18.50;45.21;101764.69;4997289;28;20053;-69
2022/01/18 03:37:42;;;;;;;2.38;1.75;;;;;;;18.49;45.26;101781.50;4996231;28;20038;-66
2022/01/18 03:40:09;;;;;;;3.15;1.67;;;;;;;18.50;45.23;101769.97;5000147;28;20473;-67
2022/01/18 03:45:04;;;;;;;1.92;1.58;;;;;;;18.49;45.21;101784.97;5003899;28;20049;-66
2022/01/18 03:47:32;;;;;;;2.50;1.73;;;;;;;18.50;45.19;101788.44;4988121;28;20056;-67
2022/01/18 03:49:57;;;;;;;2.28;1.60;;;;;;;18.50;45.15;101783.16;4993357;28;20049;-66
2022/01/18 03:52:23;;;;;;;2.90;1.90;;;;;;;18.49;45.08;101779.69;5000350;28;20026;-67
2022/01/18 03:54:50;;;;;;;3.35;2.33;;;;;;;18.48;45.04;101785.97;4998960;28;20053;-67
2022/01/18 03:57:18;;;;;;;2.30;1.90;;;;;;;18.47;45.07;101786.97;4993542;28;20117;-66
2022/01/18 03:59:45;;;;;;;2.45;1.95;;;;;;;18.46;45.10;101792.41;4996231;28;20254;-68
2022/01/18 04:02:11;;;;;;;2.45;1.70;;;;;;;18.46;45.11;101789.75;4995335;28;20402;-69
2022/01/18 04:04:37;;;;;;;2.47;1.80;;;;;;;18.46;44.94;101787.13;5002322;28;20041;-68
2022/01/18 04:07:04;;;;;;;2.45;2.13;;;;;;;18.46;44.91;101779.19;5001180;28;20030;-68
2022/01/18 04:09:29;;;;;;;2.22;1.73;;;;;;;18.45;45.01;101788.09;4998665;28;20413;-69
2022/01/18 04:11:55;;;;;;;2.95;2.20;;;;;;;18.45;44.79;101790.75;5005540;28;20034;-68
2022/01/18 04:14:21;;;;;;;1.90;1.52;;;;;;;18.43;45.05;101784.84;5000606;28;20113;-66
2022/01/18 04:27:43;;;;;;;2.45;1.67;;;;;;;18.38;44.71;101797.69;4996757;28;20060;-69
2022/01/18 04:30:09;;;;;;;2.55;2.03;;;;;;;18.37;44.96;101790.75;5005467;28;20045;-69
2022/01/18 04:32:34;;;;;;;3.03;1.70;;;;;;;18.37;44.98;101793.41;4999293;28;20458;-68
2022/01/18 04:35:00;;;;;;;3.40;1.80;;;;;;;18.36;44.89;101797.84;4999551;28;20069;-68
2022/01/18 04:37:25;;;;;;;2.55;1.70;;;;;;;18.34;44.98;101791.09;5001643;28;20057;-69
2022/01/18 04:39:51;;;;;;;2.13;1.70;;;;;;;18.34;44.99;101796.38;4995266;28;20034;-69
2022/01/18 04:42:35;;;;;;;2.45;1.77;;;;;;;18.33;44.66;101794.72;5000925;28;20044;-66
2022/01/18 04:50:28;;;;;;;1.88;1.58;;;;;;;18.31;44.84;101807.25;5013677;28;20045;-67
2022/01/18 04:52:54;;;;;;;2.85;2.10;;;;;;;18.31;44.43;101812.53;5002867;28;20042;-67
2022/01/18 04:55:20;;;;;;;3.25;2.08;;;;;;;18.30;44.60;101822.25;4999680;28;20760;-67
2022/01/18 04:57:52;;;;;;;2.42;1.65;;;;;;;18.30;44.58;101821.41;4999784;28;20420;-67
2022/01/18 05:00:18;;;;;;;1.83;1.70;;;;;;;18.30;44.71;101821.41;4992979;28;20474;-70
2022/01/18 05:02:44;;;;;;;2.38;1.92;;;;;;;18.28;44.40;101826.03;4999761;28;20129;-68
2022/01/18 05:05:11;;;;;;;2.92;1.85;;;;;;;18.29;44.58;101828.50;5001626;28;20117;-67
2022/01/18 05:07:38;;;;;;;2.10;1.80;;;;;;;18.29;44.81;101832.97;4997833;28;20095;-66
2022/01/18 05:10:04;;;;;;;3.00;1.30;;;;;;;18.27;44.76;101833.13;4998501;28;20030;-69
2022/01/18 05:12:45;;;;;;;2.65;1.67;;;;;;;18.24;44.94;101844.81;5001254;28;20030;-67
2022/01/18 05:15:40;;;;;;;2.78;2.00;;;;;;;18.23;45.34;101851.09;4993015;28;20333;-69
2022/01/18 05:23:18;;;;;;;2.50;1.52;;;;;;;18.32;45.59;101859.84;5003239;28;20099;-66
2022/01/18 05:25:45;;;;;;;6.57;1.92;;;;;;;18.37;45.94;101883.94;4998559;28;20109;-69
2022/01/18 05:28:12;;;;;;;9.18;2.15;;;;;;;18.43;46.10;101869.28;5001683;28;20038;-68
2022/01/18 05:30:37;;;;;;;2.75;1.80;;;;;;;18.42;46.62;101872.91;4999382;28;20405;-69
2022/01/18 05:33:03;;;;;;;6.68;1.58;;;;;;;18.42;46.94;101884.28;4998084;28;20022;-69
2022/01/18 05:35:28;;;;;;;5.57;2.03;;;;;;;18.42;47.72;101880.81;4992226;28;20091;-67
2022/01/18 05:37:54;;;;;;;5.72;2.17;;;;;;;18.49;48.30;101889.72;4997050;28;20117;-68
2022/01/18 05:40:20;;;;;;;5.25;2.40;;;;;;;18.55;48.37;101897.00;4995323;28;20041;-68
2022/01/18 05:42:45;;;;;;;17.02;2.20;;;;;;;18.58;48.80;101900.13;5004080;28;20426;-68
2022/01/18 05:45:11;;;;;;;6.43;1.85;;;;;;;18.61;48.91;101901.66;5007360;28;20057;-69
2022/01/18 05:47:39;;;;;;;9.40;1.67;;;;;;;18.63;49.15;101897.03;4986723;28;20552;-69
2022/01/18 05:50:07;;;;;;;11.25;2.55;;;;;;;18.64;48.81;101900.50;5002718;28;20156;-68
2022/01/18 05:52:33;;;;;;;8.15;2.30;;;;;;;18.68;49.14;101915.84;4998023;28;20021;-68
2022/01/18 05:54:58;;;;;;;4.95;2.13;;;;;;;18.72;49.22;101914.53;5000444;28;20101;-67
2022/01/18 05:57:24;;;;;;;6.25;2.03;;;;;;;18.76;49.01;101918.50;4998156;28;20164;-68
2022/01/18 05:59:50;;;;;;;4.55;1.92;;;;;;;18.78;48.98;101932.38;5001134;28;20030;-68
2022/01/18 06:02:19;;;;;;;4.05;1.60;;;;;;;18.83;48.91;101945.09;4994485;28;20050;-68
2022/01/18 06:07:30;;;;;;;7.95;2.20;;;;;;;18.88;48.71;101934.88;4997436;28;20045;-68
2022/01/18 06:09:56;;;;;;;4.80;2.08;;;;;;;18.92;48.72;101943.28;5004904;28;20038;-67
2022/01/18 06:12:26;;;;;;;7.18;2.38;;;;;;;18.95;49.08;101953.50;5004481;28;20187;-68
2022/01/18 06:14:52;;;;;;;3.75;2.20;;;;;;;18.98;48.71;101947.91;5006585;28;20030;-68
2022/01/18 06:17:17;;;;;;;5.32;2.78;;;;;;;19.02;48.84;101959.78;5000474;28;20030;-69
2022/01/18 06:19:43;;;;;;;6.55;2.25;;;;;;;19.04;48.69;101968.38;5003255;28;20033;-69
2022/01/18 06:22:08;;;;;;;3.92;1.85;;;;;;;19.04;48.69;101973.66;4997638;28;20410;-68
2022/01/18 06:24:33;;;;;;;6.50;2.17;;;;;;;19.04;48.84;101969.22;5004690;28;20038;-68
2022/01/18 06:26:59;;;;;;;5.13;1.70;;;;;;;19.04;48.82;101976.31;4993867;28;20046;-67
2022/01/18 06:29:24;;;;;;;5.35;1.85;;;;;;;19.03;48.83;101978.13;4992829;28;20058;-67
2022/01/18 06:31:50;;;;;;;4.40;2.00;;;;;;;19.06;48.84;101992.81;5003806;28;20342;-68
2022/01/18 06:34:15;;;;;;;3.63;1.77;;;;;;;19.07;48.81;101990.00;4999447;28;20077;-67
2022/01/18 06:36:41;;;;;;;4.90;1.63;;;;;;;19.09;48.79;101997.78;5002845;28;20438;-68
2022/01/18 06:39:07;;;;;;;2.20;1.20;;;;;;;19.11;48.79;101995.81;5006031;28;20133;-67
2022/01/18 06:41:33;;;;;;;2.88;1.80;;;;;;;19.14;48.83;102011.31;4996243;28;20166;-67
2022/01/18 06:43:59;;;;;;;2.80;1.92;;;;;;;19.15;48.92;102007.69;5000917;28;20034;-66
2022/01/18 06:46:24;;;;;;;5.15;1.98;;;;;;;19.14;48.69;102006.88;4995852;28;20469;-68
2022/01/18 06:48:49;;;;;;;2.53;1.80;;;;;;;19.16;48.65;102017.28;5001925;28;20042;-69
2022/01/18 06:51:15;;;;;;;2.67;1.27;;;;;;;19.17;48.64;102024.22;4996906;28;20030;-67
2022/01/18 06:53:45;;;;;;;5.88;1.73;;;;;;;19.18;48.59;102021.41;5000218;28;20117;-68
2022/01/18 06:56:15;;;;;;;3.47;1.92;;;;;;;19.20;48.19;102022.06;4997142;28;20034;-66
2022/01/18 06:58:41;;;;;;;4.35;2.05;;;;;;;19.20;48.38;102024.72;5005944;28;20033;-69
2022/01/18 07:01:09;;;;;;;2.60;1.83;;;;;;;19.23;48.20;102031.50;4998299;28;20437;-68
2022/01/18 07:03:34;;;;;;;5.85;1.75;;;;;;;19.23;48.01;102037.59;4995400;28;20137;-69
2022/01/18 07:06:00;;;;;;;3.47;2.35;;;;;;;19.25;47.92;102039.25;5000048;28;20117;-68
2022/01/18 07:08:26;;;;;;;3.90;1.67;;;;;;;19.25;47.80;102040.06;5003778;28;20033;-68
2022/01/18 07:10:51;;;;;;;4.72;1.85;;;;;;;19.24;47.92;102035.78;5000526;28;20019;-69
2022/01/18 07:13:16;;;;;;;2.13;1.48;;;;;;;19.25;47.84;102045.38;5001391;28;20030;-68
2022/01/18 07:15:42;;;;;;;4.55;2.05;;;;;;;19.26;47.86;102052.31;4997581;28;20223;-69
2022/01/18 07:18:09;;;;;;;4.93;1.73;;;;;;;19.30;48.20;102061.56;5001969;28;20026;-66
2022/01/18 07:20:35;;;;;;;7.03;1.65;;;;;;;19.34;48.72;102065.53;5005582;28;20428;-67
2022/01/18 07:23:00;;;;;;;5.88;1.50;;;;;;;19.37;48.71;102074.94;5004055;28;20046;-67
2022/01/18 07:25:26;;;;;;;3.33;1.40;;;;;;;19.37;48.49;102086.34;4995148;28;20381;-68
2022/01/18 07:27:52;;;;;;;2.92;1.50;;;;;;;19.35;48.75;102083.03;5002756;28;20400;-67
2022/01/18 07:30:17;;;;;;;3.35;1.27;;;;;;;19.34;48.55;102078.75;5000498;28;20034;-69
2022/01/18 07:32:43;;;;;;;1.80;1.20;;;;;;;19.35;48.51;102082.22;4997595;28;20438;-69
2022/01/18 07:35:09;;;;;;;2.17;1.52;;;;;;;19.35;48.58;102093.63;4994144;28;20050;-70
2022/01/18 07:37:35;;;;;;;5.60;1.35;;;;;;;19.37;48.60;102109.31;4997063;28;20022;-68
2022/01/18 07:40:01;;;;;;;5.95;1.92;;;;;;;19.35;48.51;102116.56;4998938;28;20067;-69
2022/01/18 07:42:27;;;;;;;3.13;1.20;;;;;;;19.34;48.77;102114.91;5004808;28;20057;-67
2022/01/18 07:44:53;;;;;;;2.72;1.60;;;;;;;19.33;48.78;102122.00;5007349;28;20458;-68
2022/01/18 07:47:19;;;;;;;3.70;1.17;;;;;;;19.33;48.70;102122.00;4997195;28;20025;-68
2022/01/18 07:49:46;;;;;;;4.88;1.73;;;;;;;19.32;48.55;102128.28;5005415;28;20049;-69
2022/01/18 07:52:11;;;;;;;3.80;1.15;;;;;;;19.32;48.48;102135.38;5000415;28;20030;-67
2022/01/18 07:54:37;;;;;;;1.77;1.05;;;;;;;19.30;48.42;102129.44;5010977;28;20069;-68
2022/01/18 07:57:02;;;;;;;4.57;1.55;;;;;;;19.30;48.31;102142.66;5000742;28;20022;-69
2022/01/18 07:59:28;;;;;;;2.40;1.38;;;;;;;19.29;48.33;102139.19;5001263;28;20042;-67
2022/01/18 08:01:54;;;;;;;1.67;1.30;;;;;;;19.28;48.29;102132.25;5003320;28;20052;-69
2022/01/18 08:04:20;;;;;;;2.28;1.42;;;;;;;19.29;48.18;102135.72;5001956;28;20118;-68
2022/01/18 08:06:45;;;;;;;3.63;1.40;;;;;;;19.28;48.17;102140.16;5006931;28;20026;-68
2022/01/18 08:09:10;;;;;;;2.30;1.38;;;;;;;19.28;47.98;102145.44;5002172;28;20123;-69
2022/01/18 08:11:36;;;;;;;4.00;1.77;;;;;;;19.28;47.62;102161.31;5004677;28;20022;-68
2022/01/18 08:14:02;;;;;;;5.45;1.80;;;;;;;19.27;47.27;102162.28;5004373;28;20041;-67
2022/01/18 08:19:00;;;;;;;4.10;1.88;;;;;;;19.27;46.89;102174.69;5002992;28;20486;-70
2022/01/18 08:21:26;;;;;;;7.43;1.67;;;;;;;19.27;46.71;102183.44;5002684;28;20512;-68
2022/01/18 08:23:52;;;;;;;3.92;1.80;;;;;;;19.27;46.63;102180.78;4999690;28;20073;-67
2022/01/18 08:26:18;;;;;;;5.07;2.15;;;;;;;19.27;46.49;102191.38;5005233;28;20459;-67
2022/01/18 08:28:44;;;;;;;3.92;2.20;;;;;;;19.29;46.27;102188.56;4998130;28;20046;-67
2022/01/18 08:31:09;;;;;;;4.80;1.88;;;;;;;19.29;46.36;102189.38;5003212;28;20073;-67
2022/01/18 08:33:35;;;;;;;4.95;2.05;;;;;;;19.27;46.28;102196.66;5000132;28;20022;-67
2022/01/18 08:36:03;;;;;;;3.15;2.05;;;;;;;19.25;46.19;102190.69;5002512;28;20021;-67
2022/01/18 08:38:30;;;;;;;2.78;1.88;;;;;;;19.24;46.13;102196.97;5007537;28;20085;-68
2022/01/18 08:40:58;;;;;;;5.25;2.05;;;;;;;19.24;46.15;102202.25;5001007;28;20041;-69
2022/01/18 08:43:24;;;;;;;3.90;2.22;;;;;;;19.23;45.94;102203.22;4999100;28;20326;-69
2022/01/18 08:45:50;;;;;;;2.83;1.95;;;;;;;19.23;46.04;102201.41;5007220;28;20126;-69
2022/01/18 08:48:15;;;;;;;3.20;1.65;;;;;;;19.23;46.04;102209.34;4998132;28;20117;-66
2022/01/18 08:50:41;;;;;;;5.75;1.98;;;;;;;19.20;46.10;102214.94;5002418;28;20080;-70
2022/01/18 08:53:07;;;;;;;4.55;2.20;;;;;;;19.18;46.08;102219.56;5001071;28;20120;-70
2022/01/18 08:55:34;;;;;;;3.05;1.92;;;;;;;19.18;45.91;102224.03;5006621;28;20025;-70
2022/01/18 08:58:03;;;;;;;2.75;2.00;;;;;;;19.16;45.90;102226.00;5006702;28;20114;-68
2022/01/18 09:00:30;;;;;;;6.50;1.85;;;;;;;19.14;45.84;102225.31;4994223;28;20371;-68
2022/01/18 09:02:56;;;;;;;4.65;2.33;;;;;;;19.13;45.89;102236.88;4997167;28;20046;-67
2022/01/18 09:05:23;;;;;;;4.22;1.67;;;;;;;19.10;45.96;102243.28;5004604;28;20068;-67
2022/01/18 09:07:50;;;;;;;2.97;1.83;;;;;;;19.09;45.72;102251.38;4990507;28;20105;-68
2022/01/18 09:10:15;;;;;;;2.95;1.60;;;;;;;19.09;45.65;102254.03;5003515;28;20476;-68
2022/01/18 09:12:41;;;;;;;3.40;2.03;;;;;;;19.07;45.89;102258.63;5003787;28;20054;-67
2022/01/18 09:15:09;;;;;;;3.65;1.75;;;;;;;19.06;45.78;102254.34;5001015;28;20030;-68
2022/01/18 09:17:36;;;;;;;3.38;1.83;;;;;;;19.06;45.74;102262.25;5006113;28;20064;-68
2022/01/18 09:20:06;;;;;;;2.42;2.13;;;;;;;19.04;45.86;102253.66;5001724;28;20031;-67
2022/01/18 09:22:38;;;;;;;3.28;1.95;;;;;;;19.02;45.79;102263.56;5001276;28;20196;-68
2022/01/18 09:25:06;;;;;;;4.70;1.50;;;;;;;19.00;45.77;102269.00;5006674;28;20026;-66
2022/01/18 09:27:32;;;;;;;3.03;1.90;;;;;;;19.01;45.87;102280.38;4993967;28;20065;-68
2022/01/18 09:29:58;;;;;;;3.58;1.63;;;;;;;18.99;45.70;102285.81;5002013;28;20057;-69
2022/01/18 09:32:23;;;;;;;3.50;2.20;;;;;;;18.98;45.79;102278.88;5000618;28;20038;-68
2022/01/18 09:34:49;;;;;;;3.15;1.98;;;;;;;18.98;45.76;102293.91;4991905;28;20468;-70
2022/01/18 09:37:15;;;;;;;2.13;1.45;;;;;;;18.98;45.86;102292.09;4997571;28;20022;-67
2022/01/18 09:39:40;;;;;;;2.03;1.77;;;;;;;18.97;45.81;102292.25;5004243;28;20078;-69
2022/01/18 09:42:06;;;;;;;3.42;1.95;;;;;;;18.99;45.76;102296.38;4997105;28;20030;-69
2022/01/18 09:44:32;;;;;;;2.28;1.60;;;;;;;18.99;45.79;102290.28;4997876;28;20030;-67
2022/01/18 09:46:57;;;;;;;2.15;1.48;;;;;;;18.98;45.74;102285.97;5000448;28;20551;-69
2022/01/18 09:49:24;;;;;;;5.45;1.98;;;;;;;18.96;45.03;102282.66;5003022;28;20030;-70
2022/01/18 09:51:51;;;;;;;5.18;2.33;;;;;;;18.95;44.09;102276.53;5003646;28;20041;-68
2022/01/18 09:54:17;;;;;;;4.07;2.17;;;;;;;18.94;43.49;102279.34;4996759;28;20026;-69
2022/01/18 09:56:43;;;;;;;4.30;2.47;;;;;;;18.93;42.78;102269.75;4997389;28;20552;-68
2022/01/18 09:59:08;;;;;;;4.85;2.78;;;;;;;18.91;41.95;102267.28;5000785;28;20030;-70
2022/01/18 10:01:34;;;;;;;4.13;2.45;;;;;;;18.90;41.62;102265.66;4993533;28;20029;-69
2022/01/18 10:04:20;;;;;;;4.55;2.78;;;;;;;18.87;41.21;102266.78;4998305;28;20022;-67
2022/01/18 10:06:50;;;;;;;;;;;;;;;18.81;41.04;102264.75;5000000;28;20022;-67
2022/01/18 10:09:17;;;;;;;2.72;1.70;;;;;;;18.85;41.99;102262.66;4998847;28;19921;-67
2022/01/18 10:12:02;;;;;;;3.55;2.47;;;;;;;18.85;41.89;102265.28;5000646;28;20037;-68
2022/01/18 10:14:29;;;;;;;3.60;2.15;;;;;;;18.87;42.21;102268.59;5003064;28;20022;-68
2022/01/18 10:16:55;;;;;;;2.33;1.80;;;;;;;18.88;42.37;102263.16;5004515;28;20117;-68
2022/01/18 10:19:42;;;;;;;2.60;2.08;;;;;;;18.86;42.36;102262.50;4997170;28;20120;-67
2022/01/18 10:22:24;;;;;;;6.28;2.25;;;;;;;18.85;42.82;102265.28;4993482;28;20030;-70
2022/01/18 10:24:49;;;;;;;3.38;1.73;;;;;;;18.87;43.04;102264.16;5000490;28;20030;-67
2022/01/18 10:27:15;;;;;;;3.30;2.50;;;;;;;18.89;43.27;102258.72;4996682;28;20037;-69
2022/01/18 10:29:48;;;;;;;2.75;1.75;;;;;;;18.86;43.35;102246.66;5005011;28;20037;-67
2022/01/18 10:37:28;;;;;;;4.10;2.22;;;;;;;18.83;43.96;102231.09;4995296;28;20322;-69
2022/01/18 10:39:57;;;;;;;2.75;1.48;;;;;;;18.83;43.90;102241.66;5001983;28;20033;-69
2022/01/18 10:42:49;;;;;;;4.63;2.38;;;;;;;18.80;44.05;102251.72;4999520;28;20025;-68
2022/01/18 10:45:18;;;;;;;2.38;1.83;;;;;;;18.81;44.22;102246.28;4999452;28;20144;-67
2022/01/18 10:47:57;;;;;;;3.03;2.25;;;;;;;18.79;44.41;102245.59;4994967;28;20304;-67
2022/01/18 10:50:23;;;;;;;3.47;2.05;;;;;;;18.80;44.45;102252.53;4995123;28;20120;-69
2022/01/18 10:52:52;;;;;;;2.78;1.73;;;;;;;18.80;44.54;102257.00;5000913;28;20061;-69
2022/01/18 10:55:23;;;;;;;3.42;1.88;;;;;;;18.76;44.68;102251.19;5001641;28;20037;-67
2022/01/18 10:57:51;;;;;;;3.58;1.67;;;;;;;18.78;44.62;102249.22;4994065;28;20045;-68
2022/01/18 11:00:21;;;;;;;3.65;1.55;;;;;;;18.78;44.72;102249.22;4992045;28;20101;-69
2022/01/18 11:02:50;;;;;;;3.03;1.92;;;;;;;18.77;44.73;102252.84;4999324;28;20136;-69
2022/01/18 11:05:24;;;;;;;2.40;1.33;;;;;;;18.76;44.70;102245.91;4996267;28;20038;-68
2022/01/18 11:07:50;;;;;;;3.33;1.75;;;;;;;18.74;44.66;102253.16;5000266;28;20042;-67
2022/01/18 11:10:18;;;;;;;3.35;1.42;;;;;;;18.73;44.66;102248.03;4994599;28;20498;-69
2022/01/18 11:13:06;;;;;;;3.40;1.38;;;;;;;18.70;44.52;102257.09;4992169;28;20482;-69
2022/01/18 11:15:36;;;;;;;2.25;1.50;;;;;;;18.70;44.52;102254.44;4999603;28;20542;-70
2022/01/18 11:18:07;;;;;;;2.60;1.20;;;;;;;18.70;44.74;102245.69;4992945;28;20113;-69
2022/01/18 11:20:35;;;;;;;3.75;1.60;;;;;;;18.68;44.63;102253.78;4996146;28;20120;-67
2022/01/18 11:23:04;;;;;;;3.05;1.02;;;;;;;18.68;44.61;102258.22;4997918;28;20034;-70
2022/01/18 11:25:30;;;;;;;1.70;1.38;;;;;;;18.67;44.64;102256.56;4996305;28;20032;-68
2022/01/18 11:27:58;;;;;;;5.13;1.70;;;;;;;18.67;44.65;102251.28;4993858;28;20027;-68
2022/01/18 11:30:31;;;;;;;4.03;1.60;;;;;;;18.65;44.67;102254.09;4996955;28;20038;-70
2022/01/18 11:32:59;;;;;;;3.45;1.73;;;;;;;18.64;44.64;102246.31;4994149;28;20034;-69
2022/01/18 11:35:36;;;;;;;4.05;1.55;;;;;;;18.61;44.95;102242.16;4999340;28;20026;-69
2022/01/18 11:38:15;;;;;;;2.63;1.60;;;;;;;18.60;44.95;102245.78;5001498;28;20036;-68
2022/01/18 11:40:45;;;;;;;3.45;1.40;;;;;;;18.61;44.87;102246.63;5000392;28;20036;-68
2022/01/18 11:43:11;;;;;;;3.35;1.50;;;;;;;18.60;44.90;102244.94;4992324;28;20042;-69
2022/01/18 11:45:39;;;;;;;3.25;1.45;;;;;;;18.60;44.96;102245.78;4997070;28;20105;-68
2022/01/18 11:48:13;;;;;;;5.10;1.63;;;;;;;18.56;45.32;102244.41;4996530;28;20080;-70
2022/01/18 11:50:47;;;;;;;3.70;1.60;;;;;;;18.56;45.30;102244.41;5000196;28;20029;-68
2022/01/18 11:53:28;;;;;;;4.82;1.92;;;;;;;18.56;45.32;102247.88;4993902;28;20060;-68
2022/01/18 11:56:00;;;;;;;4.30;1.45;;;;;;;18.55;45.37;102253.31;4992088;28;20136;-70
2022/01/18 11:58:27;;;;;;;2.72;1.48;;;;;;;18.55;45.25;102248.03;5001540;28;20022;-69
2022/01/18 12:01:00;;;;;;;4.35;1.38;;;;;;;18.52;45.10;102249.16;4997157;28;20176;-68
2022/01/18 12:03:28;;;;;;;6.00;1.85;;;;;;;18.50;45.15;102253.75;4995251;28;20057;-69
2022/01/18 12:06:00;;;;;;;9.88;2.03;;;;;;;18.51;45.37;102251.97;4999484;28;20531;-68
2022/01/18 12:08:43;;;;;;;7.28;1.23;;;;;;;18.51;45.63;102257.22;4998981;28;20180;-70
2022/01/18 12:11:33;;;;;;;5.47;1.55;;;;;;;18.54;45.51;102254.28;4992201;28;20529;-69
2022/01/18 12:14:00;;;;;;;3.90;1.05;;;;;;;18.56;45.69;102254.97;4996173;28;21169;-69
2022/01/18 12:16:29;;;;;;;7.43;1.80;;;;;;;18.55;45.98;102258.59;4994715;28;20385;-71
2022/01/18 12:19:00;;;;;;;3.50;1.15;;;;;;;18.53;45.72;102256.09;4996761;28;20172;-68
2022/01/18 12:21:29;;;;;;;3.28;0.93;;;;;;;18.51;45.61;102258.06;4994802;28;20046;-68
2022/01/18 12:23:57;;;;;;;3.53;0.98;;;;;;;18.50;45.65;102258.22;5005983;28;20034;-70
2022/01/18 12:32:05;;;;;;;3.17;1.20;;;;;;;18.44;45.57;102257.00;4992757;28;20049;-70
2022/01/18 12:34:38;;;;;;;8.05;1.15;;;;;;;18.44;45.58;102256.19;5001145;28;20030;-70
2022/01/18 12:39:54;;;;;;;9.32;2.13;;;;;;;18.62;48.20;102249.09;4995303;28;20034;-71
2022/01/18 12:45:09;;;;;;;11.75;3.05;;;;;;;18.76;49.88;102253.84;4994721;28;20485;-68
2022/01/18 12:47:42;;;;;;;7.53;2.10;;;;;;;18.76;50.15;102251.19;4995710;28;20038;-71
2022/01/18 12:50:10;;;;;;;5.40;1.77;;;;;;;18.77;49.86;102250.22;5002158;28;20038;-69
2022/01/18 12:52:57;;;;;;;5.88;1.30;;;;;;;18.75;49.87;102254.81;4996359;28;20370;-70
2022/01/18 12:55:44;;;;;;;5.30;1.20;;;;;;;18.72;49.64;102249.84;4997607;28;20049;-68
2022/01/18 12:58:34;;;;;;;6.65;1.58;;;;;;;18.73;49.43;102248.03;5000999;28;20041;-70